LFML METAR and TAF | Updated Today

LFML METAR

Marseille Provence Airport

Observation time: 17 min. ago

LFML 010800Z AUTO 29005KT CAVOK 14/08 Q1021 NOSIG

Need help? Read our tutorial on how to read METARs or read the parsed version below.

Marseille Provence Airport (LFML) METAR

  • Weather conditions on Sat, 01 Oct 2022 08:00:00 +0000 (17 min. ago):
  • Present conditions: Dry
  • Clouds: Clear skies
  • Visibility: Greater than 10 km
  • Wind: 290 degrees at 5 knots
  • Temperature: 14 celsius
  • Dew point: 8 celsius
  • Pressure: 1021 millibars
  • Remarks: None


Useful to know...

LFML TAF

Marseille Provence Airport

TAF LFML 010200Z 0103/0209 32010KT CAVOK TX22/0115Z TN12/0106Z
Observation time: 6:17 hr. ago
Need help? Read our tutorial on how to read TAFs or read the parsed version below.

Parsed version of TAF for Marseille Provence Airport (LFML)

  • From 01 October at 03:00 UTC, to day 02 of the month at 09:00 UTC
  • Visibility: Greater than 10 km
  • Wind: 320 degrees at 10